sensor_id;sensor_type;location;lat;lon;timestamp;P1;durP1;ratioP1;P2;durP2;ratioP2
77091;SDS011;66032;48.252;11.638;2023-04-03T00:00:56;7.20;;;4.43;;
77091;SDS011;66032;48.252;11.638;2023-04-03T00:03:24;8.00;;;4.90;;
77091;SDS011;66032;48.252;11.638;2023-04-03T00:05:51;8.50;;;4.97;;
77091;SDS011;66032;48.252;11.638;2023-04-03T00:08:19;7.10;;;4.80;;
77091;SDS011;66032;48.252;11.638;2023-04-03T00:10:46;7.72;;;4.68;;
77091;SDS011;66032;48.252;11.638;2023-04-03T00:13:14;7.75;;;4.70;;
77091;SDS011;66032;48.252;11.638;2023-04-03T00:15:42;8.23;;;4.32;;
77091;SDS011;66032;48.252;11.638;2023-04-03T00:18:10;9.48;;;4.18;;
77091;SDS011;66032;48.252;11.638;2023-04-03T00:20:37;7.70;;;4.68;;
77091;SDS011;66032;48.252;11.638;2023-04-03T00:23:05;7.55;;;4.30;;
77091;SDS011;66032;48.252;11.638;2023-04-03T00:25:32;7.45;;;4.55;;
77091;SDS011;66032;48.252;11.638;2023-04-03T00:28:00;7.47;;;4.32;;
77091;SDS011;66032;48.252;11.638;2023-04-03T00:30:28;7.72;;;5.03;;
77091;SDS011;66032;48.252;11.638;2023-04-03T00:32:55;7.13;;;4.38;;
77091;SDS011;66032;48.252;11.638;2023-04-03T00:35:23;11.88;;;4.63;;
77091;SDS011;66032;48.252;11.638;2023-04-03T00:37:51;6.75;;;4.63;;
77091;SDS011;66032;48.252;11.638;2023-04-03T00:40:21;7.63;;;4.65;;
77091;SDS011;66032;48.252;11.638;2023-04-03T00:42:54;9.18;;;4.93;;
77091;SDS011;66032;48.252;11.638;2023-04-03T00:45:26;7.38;;;4.28;;
77091;SDS011;66032;48.252;11.638;2023-04-03T00:48:00;7.07;;;4.45;;
77091;SDS011;66032;48.252;11.638;2023-04-03T00:50:30;6.28;;;4.30;;
77091;SDS011;66032;48.252;11.638;2023-04-03T00:52:57;7.68;;;4.32;;
77091;SDS011;66032;48.252;11.638;2023-04-03T00:55:25;9.18;;;4.32;;
77091;SDS011;66032;48.252;11.638;2023-04-03T00:57:53;6.32;;;3.80;;
77091;SDS011;66032;48.252;11.638;2023-04-03T01:00:22;7.38;;;4.40;;
77091;SDS011;66032;48.252;11.638;2023-04-03T01:02:50;6.20;;;3.83;;
77091;SDS011;66032;48.252;11.638;2023-04-03T01:05:19;6.13;;;3.78;;
77091;SDS011;66032;48.252;11.638;2023-04-03T01:07:49;6.43;;;4.10;;
77091;SDS011;66032;48.252;11.638;2023-04-03T01:10:18;6.65;;;3.97;;
77091;SDS011;66032;48.252;11.638;2023-04-03T01:12:48;7.78;;;4.22;;
77091;SDS011;66032;48.252;11.638;2023-04-03T01:15:24;6.68;;;4.20;;
77091;SDS011;66032;48.252;11.638;2023-04-03T01:17:57;5.45;;;3.55;;
77091;SDS011;66032;48.252;11.638;2023-04-03T01:28:28;7.38;;;4.20;;
77091;SDS011;66032;48.252;11.638;2023-04-03T01:33:39;6.40;;;3.42;;
77091;SDS011;66032;48.252;11.638;2023-04-03T01:36:07;5.57;;;3.58;;
77091;SDS011;66032;48.252;11.638;2023-04-03T01:38:37;6.78;;;3.58;;
77091;SDS011;66032;48.252;11.638;2023-04-03T01:41:04;6.28;;;3.70;;
77091;SDS011;66032;48.252;11.638;2023-04-03T01:43:31;6.18;;;3.53;;
77091;SDS011;66032;48.252;11.638;2023-04-03T01:45:59;5.72;;;3.42;;
77091;SDS011;66032;48.252;11.638;2023-04-03T01:48:26;6.07;;;3.83;;
77091;SDS011;66032;48.252;11.638;2023-04-03T01:50:53;6.13;;;3.70;;
77091;SDS011;66032;48.252;11.638;2023-04-03T01:53:21;6.22;;;3.55;;
77091;SDS011;66032;48.252;11.638;2023-04-03T01:55:48;4.95;;;3.47;;
77091;SDS011;66032;48.252;11.638;2023-04-03T01:58:16;5.60;;;3.40;;
77091;SDS011;66032;48.252;11.638;2023-04-03T02:00:43;6.45;;;3.50;;
77091;SDS011;66032;48.252;11.638;2023-04-03T02:03:11;5.85;;;3.83;;
77091;SDS011;66032;48.252;11.638;2023-04-03T02:05:38;7.07;;;3.75;;
77091;SDS011;66032;48.252;11.638;2023-04-03T02:08:06;5.57;;;3.35;;
77091;SDS011;66032;48.252;11.638;2023-04-03T02:10:34;5.43;;;3.30;;
77091;SDS011;66032;48.252;11.638;2023-04-03T02:13:01;6.80;;;3.30;;
77091;SDS011;66032;48.252;11.638;2023-04-03T02:15:29;5.85;;;3.40;;
77091;SDS011;66032;48.252;11.638;2023-04-03T02:17:57;5.30;;;3.35;;
77091;SDS011;66032;48.252;11.638;2023-04-03T02:20:25;4.78;;;3.20;;
77091;SDS011;66032;48.252;11.638;2023-04-03T02:22:53;5.30;;;3.35;;
77091;SDS011;66032;48.252;11.638;2023-04-03T02:25:20;4.78;;;3.17;;
77091;SDS011;66032;48.252;11.638;2023-04-03T02:27:49;5.97;;;2.97;;
77091;SDS011;66032;48.252;11.638;2023-04-03T02:30:17;6.05;;;3.40;;
77091;SDS011;66032;48.252;11.638;2023-04-03T02:32:44;4.57;;;3.15;;
77091;SDS011;66032;48.252;11.638;2023-04-03T02:35:12;5.65;;;3.40;;
77091;SDS011;66032;48.252;11.638;2023-04-03T02:37:40;4.55;;;3.03;;
77091;SDS011;66032;48.252;11.638;2023-04-03T02:40:07;6.00;;;3.25;;
77091;SDS011;66032;48.252;11.638;2023-04-03T02:42:35;5.53;;;2.90;;
77091;SDS011;66032;48.252;11.638;2023-04-03T02:45:02;5.78;;;3.17;;
77091;SDS011;66032;48.252;11.638;2023-04-03T02:47:30;5.70;;;3.25;;
77091;SDS011;66032;48.252;11.638;2023-04-03T02:49:57;6.38;;;3.30;;
77091;SDS011;66032;48.252;11.638;2023-04-03T02:52:24;7.18;;;2.72;;
77091;SDS011;66032;48.252;11.638;2023-04-03T02:54:55;5.35;;;2.80;;
77091;SDS011;66032;48.252;11.638;2023-04-03T02:57:22;5.43;;;3.20;;
77091;SDS011;66032;48.252;11.638;2023-04-03T02:59:49;4.90;;;3.03;;
77091;SDS011;66032;48.252;11.638;2023-04-03T03:02:17;4.63;;;2.90;;
77091;SDS011;66032;48.252;11.638;2023-04-03T03:04:44;5.72;;;2.78;;
77091;SDS011;66032;48.252;11.638;2023-04-03T03:07:11;6.05;;;3.00;;
77091;SDS011;66032;48.252;11.638;2023-04-03T03:09:38;4.85;;;2.85;;
77091;SDS011;66032;48.252;11.638;2023-04-03T03:12:06;4.68;;;3.00;;
77091;SDS011;66032;48.252;11.638;2023-04-03T03:14:33;4.40;;;2.85;;
77091;SDS011;66032;48.252;11.638;2023-04-03T03:17:01;3.90;;;2.70;;
77091;SDS011;66032;48.252;11.638;2023-04-03T03:19:28;4.45;;;2.80;;
77091;SDS011;66032;48.252;11.638;2023-04-03T03:21:56;5.30;;;3.40;;
77091;SDS011;66032;48.252;11.638;2023-04-03T03:24:23;4.85;;;3.08;;
77091;SDS011;66032;48.252;11.638;2023-04-03T03:26:51;4.97;;;3.00;;
77091;SDS011;66032;48.252;11.638;2023-04-03T03:29:18;6.30;;;2.72;;
77091;SDS011;66032;48.252;11.638;2023-04-03T03:31:46;5.05;;;2.78;;
77091;SDS011;66032;48.252;11.638;2023-04-03T03:34:13;4.68;;;2.92;;
77091;SDS011;66032;48.252;11.638;2023-04-03T03:36:41;8.40;;;3.20;;
77091;SDS011;66032;48.252;11.638;2023-04-03T03:39:08;6.18;;;2.72;;
77091;SDS011;66032;48.252;11.638;2023-04-03T03:41:37;5.22;;;2.88;;
77091;SDS011;66032;48.252;11.638;2023-04-03T03:44:04;5.35;;;3.13;;
77091;SDS011;66032;48.252;11.638;2023-04-03T03:46:31;5.15;;;3.00;;
77091;SDS011;66032;48.252;11.638;2023-04-03T03:48:59;4.82;;;2.97;;
77091;SDS011;66032;48.252;11.638;2023-04-03T03:51:27;5.32;;;2.92;;
77091;SDS011;66032;48.252;11.638;2023-04-03T03:53:55;6.22;;;3.22;;
77091;SDS011;66032;48.252;11.638;2023-04-03T03:56:23;6.93;;;3.15;;
77091;SDS011;66032;48.252;11.638;2023-04-03T03:58:51;4.72;;;2.85;;
77091;SDS011;66032;48.252;11.638;2023-04-03T04:01:18;5.07;;;2.75;;
77091;SDS011;66032;48.252;11.638;2023-04-03T04:03:47;5.50;;;3.17;;
77091;SDS011;66032;48.252;11.638;2023-04-03T04:06:19;5.72;;;3.05;;
77091;SDS011;66032;48.252;11.638;2023-04-03T04:08:47;6.68;;;3.08;;
77091;SDS011;66032;48.252;11.638;2023-04-03T04:11:14;5.68;;;2.97;;
77091;SDS011;66032;48.252;11.638;2023-04-03T04:13:43;5.65;;;2.95;;
77091;SDS011;66032;48.252;11.638;2023-04-03T04:16:13;5.32;;;2.92;;
77091;SDS011;66032;48.252;11.638;2023-04-03T04:18:41;4.97;;;3.05;;
77091;SDS011;66032;48.252;11.638;2023-04-03T04:21:08;4.80;;;3.30;;
77091;SDS011;66032;48.252;11.638;2023-04-03T04:23:37;5.25;;;3.13;;
77091;SDS011;66032;48.252;11.638;2023-04-03T04:26:04;6.75;;;3.42;;
77091;SDS011;66032;48.252;11.638;2023-04-03T04:28:34;5.85;;;3.33;;
77091;SDS011;66032;48.252;11.638;2023-04-03T04:31:03;5.97;;;3.38;;
77091;SDS011;66032;48.252;11.638;2023-04-03T04:33:30;6.53;;;3.20;;
77091;SDS011;66032;48.252;11.638;2023-04-03T04:36:01;7.20;;;3.38;;
77091;SDS011;66032;48.252;11.638;2023-04-03T04:38:28;8.25;;;3.03;;
77091;SDS011;66032;48.252;11.638;2023-04-03T04:40:56;5.47;;;3.13;;
77091;SDS011;66032;48.252;11.638;2023-04-03T04:43:23;5.25;;;3.00;;
77091;SDS011;66032;48.252;11.638;2023-04-03T04:46:06;5.95;;;3.42;;
77091;SDS011;66032;48.252;11.638;2023-04-03T04:48:40;5.50;;;3.33;;
77091;SDS011;66032;48.252;11.638;2023-04-03T04:51:10;4.97;;;3.20;;
77091;SDS011;66032;48.252;11.638;2023-04-03T04:53:38;6.70;;;3.55;;
77091;SDS011;66032;48.252;11.638;2023-04-03T04:56:07;6.43;;;3.17;;
77091;SDS011;66032;48.252;11.638;2023-04-03T04:58:36;5.53;;;3.50;;
77091;SDS011;66032;48.252;11.638;2023-04-03T05:01:07;5.70;;;3.22;;
77091;SDS011;66032;48.252;11.638;2023-04-03T05:03:45;5.85;;;3.60;;
77091;SDS011;66032;48.252;11.638;2023-04-03T05:06:13;5.22;;;3.20;;
77091;SDS011;66032;48.252;11.638;2023-04-03T05:08:40;5.95;;;3.80;;
77091;SDS011;66032;48.252;11.638;2023-04-03T05:11:07;5.97;;;3.83;;
77091;SDS011;66032;48.252;11.638;2023-04-03T05:13:35;5.65;;;3.55;;
77091;SDS011;66032;48.252;11.638;2023-04-03T05:16:03;5.85;;;3.15;;
77091;SDS011;66032;48.252;11.638;2023-04-03T05:18:31;6.20;;;3.58;;
77091;SDS011;66032;48.252;11.638;2023-04-03T05:21:03;6.18;;;3.38;;
77091;SDS011;66032;48.252;11.638;2023-04-03T05:23:35;6.50;;;3.67;;
77091;SDS011;66032;48.252;11.638;2023-04-03T05:26:03;6.57;;;3.67;;
77091;SDS011;66032;48.252;11.638;2023-04-03T05:28:31;5.70;;;3.30;;
77091;SDS011;66032;48.252;11.638;2023-04-03T05:30:59;7.22;;;4.38;;
77091;SDS011;66032;48.252;11.638;2023-04-03T05:33:32;5.28;;;3.20;;
77091;SDS011;66032;48.252;11.638;2023-04-03T05:36:04;6.88;;;3.97;;
77091;SDS011;66032;48.252;11.638;2023-04-03T05:38:36;6.88;;;3.58;;
77091;SDS011;66032;48.252;11.638;2023-04-03T05:41:04;6.00;;;3.60;;
77091;SDS011;66032;48.252;11.638;2023-04-03T05:43:32;5.93;;;3.60;;
77091;SDS011;66032;48.252;11.638;2023-04-03T05:46:01;6.50;;;3.50;;
77091;SDS011;66032;48.252;11.638;2023-04-03T05:48:29;6.28;;;3.65;;
77091;SDS011;66032;48.252;11.638;2023-04-03T05:50:57;6.30;;;3.80;;
77091;SDS011;66032;48.252;11.638;2023-04-03T05:53:27;7.70;;;4.10;;
77091;SDS011;66032;48.252;11.638;2023-04-03T05:56:01;6.78;;;3.70;;
77091;SDS011;66032;48.252;11.638;2023-04-03T05:58:31;6.63;;;3.70;;
77091;SDS011;66032;48.252;11.638;2023-04-03T06:00:58;6.97;;;3.67;;
77091;SDS011;66032;48.252;11.638;2023-04-03T06:03:26;5.50;;;3.60;;
77091;SDS011;66032;48.252;11.638;2023-04-03T06:05:54;6.22;;;3.53;;
77091;SDS011;66032;48.252;11.638;2023-04-03T06:08:23;6.03;;;3.58;;
77091;SDS011;66032;48.252;11.638;2023-04-03T06:10:50;5.35;;;3.30;;
77091;SDS011;66032;48.252;11.638;2023-04-03T06:13:18;6.03;;;3.80;;
77091;SDS011;66032;48.252;11.638;2023-04-03T06:15:45;5.93;;;3.20;;
77091;SDS011;66032;48.252;11.638;2023-04-03T06:18:17;4.97;;;3.25;;
77091;SDS011;66032;48.252;11.638;2023-04-03T06:20:45;7.10;;;3.72;;
77091;SDS011;66032;48.252;11.638;2023-04-03T06:23:12;6.20;;;3.83;;
77091;SDS011;66032;48.252;11.638;2023-04-03T06:25:42;6.75;;;3.60;;
77091;SDS011;66032;48.252;11.638;2023-04-03T06:28:10;7.93;;;3.97;;
77091;SDS011;66032;48.252;11.638;2023-04-03T06:30:43;6.38;;;3.25;;
77091;SDS011;66032;48.252;11.638;2023-04-03T06:33:11;5.43;;;3.55;;
77091;SDS011;66032;48.252;11.638;2023-04-03T06:35:39;5.78;;;3.75;;
77091;SDS011;66032;48.252;11.638;2023-04-03T06:38:09;5.75;;;3.78;;
77091;SDS011;66032;48.252;11.638;2023-04-03T06:40:43;6.18;;;3.78;;
77091;SDS011;66032;48.252;11.638;2023-04-03T06:43:10;5.43;;;3.70;;
77091;SDS011;66032;48.252;11.638;2023-04-03T06:45:39;5.82;;;3.92;;
77091;SDS011;66032;48.252;11.638;2023-04-03T06:48:17;5.85;;;3.53;;
77091;SDS011;66032;48.252;11.638;2023-04-03T06:50:54;6.22;;;3.67;;
77091;SDS011;66032;48.252;11.638;2023-04-03T06:53:33;6.60;;;3.85;;
77091;SDS011;66032;48.252;11.638;2023-04-03T06:56:03;5.72;;;3.92;;
77091;SDS011;66032;48.252;11.638;2023-04-03T06:58:34;7.63;;;4.18;;
77091;SDS011;66032;48.252;11.638;2023-04-03T07:01:08;6.50;;;3.90;;
77091;SDS011;66032;48.252;11.638;2023-04-03T07:03:37;6.13;;;4.15;;
77091;SDS011;66032;48.252;11.638;2023-04-03T07:06:14;5.82;;;3.67;;
77091;SDS011;66032;48.252;11.638;2023-04-03T07:08:46;6.50;;;4.10;;
77091;SDS011;66032;48.252;11.638;2023-04-03T07:11:31;7.32;;;4.38;;
77091;SDS011;66032;48.252;11.638;2023-04-03T07:14:04;7.40;;;4.35;;
77091;SDS011;66032;48.252;11.638;2023-04-03T07:16:35;6.30;;;4.20;;
77091;SDS011;66032;48.252;11.638;2023-04-03T07:19:07;7.38;;;4.05;;
77091;SDS011;66032;48.252;11.638;2023-04-03T07:21:44;6.43;;;4.05;;
77091;SDS011;66032;48.252;11.638;2023-04-03T07:24:17;6.82;;;4.25;;
77091;SDS011;66032;48.252;11.638;2023-04-03T07:26:48;9.23;;;4.70;;
77091;SDS011;66032;48.252;11.638;2023-04-03T07:29:16;9.07;;;5.20;;
77091;SDS011;66032;48.252;11.638;2023-04-03T07:31:48;8.13;;;4.85;;
77091;SDS011;66032;48.252;11.638;2023-04-03T07:34:16;7.32;;;4.80;;
77091;SDS011;66032;48.252;11.638;2023-04-03T07:36:44;6.05;;;4.43;;
77091;SDS011;66032;48.252;11.638;2023-04-03T07:39:14;6.53;;;4.60;;
77091;SDS011;66032;48.252;11.638;2023-04-03T07:41:44;7.90;;;4.97;;
77091;SDS011;66032;48.252;11.638;2023-04-03T07:44:24;6.32;;;4.47;;
77091;SDS011;66032;48.252;11.638;2023-04-03T07:46:52;7.80;;;4.65;;
77091;SDS011;66032;48.252;11.638;2023-04-03T07:49:29;9.82;;;4.68;;
77091;SDS011;66032;48.252;11.638;2023-04-03T07:52:12;8.48;;;5.13;;
77091;SDS011;66032;48.252;11.638;2023-04-03T07:54:41;6.40;;;4.78;;
77091;SDS011;66032;48.252;11.638;2023-04-03T07:57:17;7.75;;;4.80;;
77091;SDS011;66032;48.252;11.638;2023-04-03T08:00:45;11.98;;;4.78;;
77091;SDS011;66032;48.252;11.638;2023-04-03T08:08:14;8.23;;;4.93;;
77091;SDS011;66032;48.252;11.638;2023-04-03T08:11:01;6.45;;;4.75;;
77091;SDS011;66032;48.252;11.638;2023-04-03T08:14:15;8.13;;;5.38;;
77091;SDS011;66032;48.252;11.638;2023-04-03T08:26:12;6.75;;;4.30;;
77091;SDS011;66032;48.252;11.638;2023-04-03T08:28:46;8.90;;;4.68;;
77091;SDS011;66032;48.252;11.638;2023-04-03T08:31:26;10.13;;;5.53;;
77091;SDS011;66032;48.252;11.638;2023-04-03T08:34:29;7.63;;;4.85;;
77091;SDS011;66032;48.252;11.638;2023-04-03T08:41:50;6.82;;;4.55;;
77091;SDS011;66032;48.252;11.638;2023-04-03T08:44:25;9.07;;;5.00;;
77091;SDS011;66032;48.252;11.638;2023-04-03T08:50:26;8.43;;;4.78;;
77091;SDS011;66032;48.252;11.638;2023-04-03T08:53:02;7.15;;;4.80;;
77091;SDS011;66032;48.252;11.638;2023-04-03T08:56:08;7.25;;;4.80;;
77091;SDS011;66032;48.252;11.638;2023-04-03T08:58:30;7.88;;;4.75;;
77091;SDS011;66032;48.252;11.638;2023-04-03T09:03:42;6.22;;;4.38;;
77091;SDS011;66032;48.252;11.638;2023-04-03T09:06:18;7.78;;;4.63;;
77091;SDS011;66032;48.252;11.638;2023-04-03T09:14:41;6.05;;;4.13;;
77091;SDS011;66032;48.252;11.638;2023-04-03T09:17:40;6.90;;;4.38;;
77091;SDS011;66032;48.252;11.638;2023-04-03T09:20:19;6.50;;;4.10;;
77091;SDS011;66032;48.252;11.638;2023-04-03T09:22:53;6.25;;;4.45;;
77091;SDS011;66032;48.252;11.638;2023-04-03T09:28:01;7.03;;;4.50;;
77091;SDS011;66032;48.252;11.638;2023-04-03T09:30:30;5.43;;;3.70;;
77091;SDS011;66032;48.252;11.638;2023-04-03T09:32:57;5.90;;;4.07;;
77091;SDS011;66032;48.252;11.638;2023-04-03T09:35:25;5.40;;;4.00;;
77091;SDS011;66032;48.252;11.638;2023-04-03T09:40:41;6.50;;;4.15;;
77091;SDS011;66032;48.252;11.638;2023-04-03T09:45:45;7.05;;;4.38;;
77091;SDS011;66032;48.252;11.638;2023-04-03T09:56:29;6.93;;;3.67;;
77091;SDS011;66032;48.252;11.638;2023-04-03T10:01:32;6.60;;;3.70;;
77091;SDS011;66032;48.252;11.638;2023-04-03T10:06:50;6.75;;;3.38;;
77091;SDS011;66032;48.252;11.638;2023-04-03T10:09:28;5.25;;;3.58;;
77091;SDS011;66032;48.252;11.638;2023-04-03T10:12:10;6.57;;;3.30;;
77091;SDS011;66032;48.252;11.638;2023-04-03T10:19:55;5.70;;;2.92;;
77091;SDS011;66032;48.252;11.638;2023-04-03T10:22:34;4.40;;;2.85;;
77091;SDS011;66032;48.252;11.638;2023-04-03T10:25:35;5.05;;;3.10;;
77091;SDS011;66032;48.252;11.638;2023-04-03T10:30:58;5.18;;;2.75;;
77091;SDS011;66032;48.252;11.638;2023-04-03T10:48:17;4.63;;;2.55;;
77091;SDS011;66032;48.252;11.638;2023-04-03T10:51:00;5.13;;;3.10;;
77091;SDS011;66032;48.252;11.638;2023-04-03T10:53:40;4.72;;;2.90;;
77091;SDS011;66032;48.252;11.638;2023-04-03T11:01:49;4.32;;;2.60;;
77091;SDS011;66032;48.252;11.638;2023-04-03T11:04:21;4.18;;;2.10;;
77091;SDS011;66032;48.252;11.638;2023-04-03T11:06:56;6.35;;;3.53;;
77091;SDS011;66032;48.252;11.638;2023-04-03T11:09:41;5.30;;;2.95;;
77091;SDS011;66032;48.252;11.638;2023-04-03T11:14:50;3.85;;;2.20;;
77091;SDS011;66032;48.252;11.638;2023-04-03T11:17:41;5.18;;;2.15;;
77091;SDS011;66032;48.252;11.638;2023-04-03T11:20:15;2.80;;;1.67;;
77091;SDS011;66032;48.252;11.638;2023-04-03T11:22:58;4.13;;;2.90;;
77091;SDS011;66032;48.252;11.638;2023-04-03T11:26:01;5.75;;;2.67;;
77091;SDS011;66032;48.252;11.638;2023-04-03T11:28:56;3.85;;;2.33;;
77091;SDS011;66032;48.252;11.638;2023-04-03T11:34:52;4.30;;;2.08;;
77091;SDS011;66032;48.252;11.638;2023-04-03T11:37:31;4.38;;;1.98;;
77091;SDS011;66032;48.252;11.638;2023-04-03T11:42:55;5.03;;;2.22;;
77091;SDS011;66032;48.252;11.638;2023-04-03T11:50:58;3.30;;;1.80;;
77091;SDS011;66032;48.252;11.638;2023-04-03T11:53:32;3.35;;;1.65;;
77091;SDS011;66032;48.252;11.638;2023-04-03T11:56:06;4.53;;;1.85;;
77091;SDS011;66032;48.252;11.638;2023-04-03T12:01:48;3.72;;;1.95;;
77091;SDS011;66032;48.252;11.638;2023-04-03T12:04:21;5.13;;;2.22;;
77091;SDS011;66032;48.252;11.638;2023-04-03T12:07:02;4.30;;;2.30;;
77091;SDS011;66032;48.252;11.638;2023-04-03T12:15:24;3.20;;;1.90;;
77091;SDS011;66032;48.252;11.638;2023-04-03T12:21:11;3.80;;;2.20;;
77091;SDS011;66032;48.252;11.638;2023-04-03T12:24:01;3.97;;;1.90;;
77091;SDS011;66032;48.252;11.638;2023-04-03T12:26:50;3.20;;;1.85;;
77091;SDS011;66032;48.252;11.638;2023-04-03T12:29:25;2.92;;;1.98;;
77091;SDS011;66032;48.252;11.638;2023-04-03T12:32:10;4.30;;;2.10;;
77091;SDS011;66032;48.252;11.638;2023-04-03T12:35:19;4.18;;;2.17;;
77091;SDS011;66032;48.252;11.638;2023-04-03T12:46:18;3.70;;;2.00;;
77091;SDS011;66032;48.252;11.638;2023-04-03T12:51:22;3.10;;;2.10;;
77091;SDS011;66032;48.252;11.638;2023-04-03T12:54:01;3.15;;;1.83;;
77091;SDS011;66032;48.252;11.638;2023-04-03T12:56:32;3.35;;;1.77;;
77091;SDS011;66032;48.252;11.638;2023-04-03T12:59:19;3.55;;;1.70;;
77091;SDS011;66032;48.252;11.638;2023-04-03T13:04:22;4.30;;;2.17;;
77091;SDS011;66032;48.252;11.638;2023-04-03T13:06:49;3.58;;;2.30;;
77091;SDS011;66032;48.252;11.638;2023-04-03T13:12:31;3.85;;;2.00;;
77091;SDS011;66032;48.252;11.638;2023-04-03T13:14:49;4.68;;;2.15;;
77091;SDS011;66032;48.252;11.638;2023-04-03T13:17:21;2.78;;;1.75;;
77091;SDS011;66032;48.252;11.638;2023-04-03T13:19:49;3.80;;;2.10;;
77091;SDS011;66032;48.252;11.638;2023-04-03T13:22:26;3.67;;;1.92;;
77091;SDS011;66032;48.252;11.638;2023-04-03T13:25:03;3.65;;;2.10;;
77091;SDS011;66032;48.252;11.638;2023-04-03T13:27:33;3.83;;;1.90;;
77091;SDS011;66032;48.252;11.638;2023-04-03T13:30:02;4.63;;;2.00;;
77091;SDS011;66032;48.252;11.638;2023-04-03T13:32:30;3.60;;;1.80;;
77091;SDS011;66032;48.252;11.638;2023-04-03T13:34:59;3.72;;;2.20;;
77091;SDS011;66032;48.252;11.638;2023-04-03T13:37:53;3.00;;;1.80;;
77091;SDS011;66032;48.252;11.638;2023-04-03T13:40:22;4.63;;;2.17;;
77091;SDS011;66032;48.252;11.638;2023-04-03T13:43:04;4.47;;;2.15;;
77091;SDS011;66032;48.252;11.638;2023-04-03T13:45:33;2.70;;;1.90;;
77091;SDS011;66032;48.252;11.638;2023-04-03T13:48:09;3.90;;;1.88;;
77091;SDS011;66032;48.252;11.638;2023-04-03T13:50:50;3.40;;;1.90;;
77091;SDS011;66032;48.252;11.638;2023-04-03T13:53:18;4.53;;;1.75;;
77091;SDS011;66032;48.252;11.638;2023-04-03T13:56:21;4.07;;;2.20;;
77091;SDS011;66032;48.252;11.638;2023-04-03T13:58:56;5.63;;;2.13;;
77091;SDS011;66032;48.252;11.638;2023-04-03T14:07:03;3.15;;;1.70;;
77091;SDS011;66032;48.252;11.638;2023-04-03T14:09:31;3.42;;;1.90;;
77091;SDS011;66032;48.252;11.638;2023-04-03T14:15:26;3.28;;;1.92;;
77091;SDS011;66032;48.252;11.638;2023-04-03T14:17:54;3.92;;;1.60;;
77091;SDS011;66032;48.252;11.638;2023-04-03T14:20:24;2.88;;;1.80;;
77091;SDS011;66032;48.252;11.638;2023-04-03T14:22:53;3.17;;;1.60;;
77091;SDS011;66032;48.252;11.638;2023-04-03T14:25:21;5.30;;;1.80;;
77091;SDS011;66032;48.252;11.638;2023-04-03T14:27:53;2.80;;;1.60;;
77091;SDS011;66032;48.252;11.638;2023-04-03T14:30:25;3.00;;;1.70;;
77091;SDS011;66032;48.252;11.638;2023-04-03T14:32:55;2.58;;;1.50;;
77091;SDS011;66032;48.252;11.638;2023-04-03T14:35:24;5.03;;;1.70;;
77091;SDS011;66032;48.252;11.638;2023-04-03T14:37:52;2.70;;;1.58;;
77091;SDS011;66032;48.252;11.638;2023-04-03T14:40:22;3.58;;;1.60;;
77091;SDS011;66032;48.252;11.638;2023-04-03T14:42:52;2.83;;;1.52;;
77091;SDS011;66032;48.252;11.638;2023-04-03T14:45:24;4.03;;;1.77;;
77091;SDS011;66032;48.252;11.638;2023-04-03T14:47:55;3.25;;;1.80;;
77091;SDS011;66032;48.252;11.638;2023-04-03T14:50:27;3.05;;;1.50;;
77091;SDS011;66032;48.252;11.638;2023-04-03T14:52:56;3.78;;;1.95;;
77091;SDS011;66032;48.252;11.638;2023-04-03T14:55:29;2.60;;;1.50;;
77091;SDS011;66032;48.252;11.638;2023-04-03T14:57:57;3.00;;;1.70;;
77091;SDS011;66032;48.252;11.638;2023-04-03T15:00:28;2.47;;;1.55;;
77091;SDS011;66032;48.252;11.638;2023-04-03T15:02:55;2.67;;;1.50;;
77091;SDS011;66032;48.252;11.638;2023-04-03T15:05:23;2.95;;;1.60;;
77091;SDS011;66032;48.252;11.638;2023-04-03T15:07:52;3.55;;;1.70;;
77091;SDS011;66032;48.252;11.638;2023-04-03T15:10:23;2.95;;;1.60;;
77091;SDS011;66032;48.252;11.638;2023-04-03T15:12:53;4.43;;;1.88;;
77091;SDS011;66032;48.252;11.638;2023-04-03T15:15:21;3.70;;;1.80;;
77091;SDS011;66032;48.252;11.638;2023-04-03T15:17:53;3.55;;;1.70;;
77091;SDS011;66032;48.252;11.638;2023-04-03T15:20:23;3.15;;;1.75;;
77091;SDS011;66032;48.252;11.638;2023-04-03T15:22:52;2.80;;;1.50;;
77091;SDS011;66032;48.252;11.638;2023-04-03T15:25:19;2.72;;;1.40;;
77091;SDS011;66032;48.252;11.638;2023-04-03T15:27:46;2.53;;;1.60;;
77091;SDS011;66032;48.252;11.638;2023-04-03T15:30:15;4.20;;;1.70;;
77091;SDS011;66032;48.252;11.638;2023-04-03T15:32:45;3.38;;;1.60;;
77091;SDS011;66032;48.252;11.638;2023-04-03T15:35:12;2.58;;;1.73;;
77091;SDS011;66032;48.252;11.638;2023-04-03T15:37:40;2.80;;;1.60;;
77091;SDS011;66032;48.252;11.638;2023-04-03T15:40:07;3.05;;;1.80;;
77091;SDS011;66032;48.252;11.638;2023-04-03T15:42:35;3.42;;;1.80;;
77091;SDS011;66032;48.252;11.638;2023-04-03T15:45:02;2.95;;;1.70;;
77091;SDS011;66032;48.252;11.638;2023-04-03T15:47:30;3.15;;;1.60;;
77091;SDS011;66032;48.252;11.638;2023-04-03T15:49:57;4.20;;;1.80;;
77091;SDS011;66032;48.252;11.638;2023-04-03T15:52:25;4.90;;;1.70;;
77091;SDS011;66032;48.252;11.638;2023-04-03T15:54:52;4.20;;;1.75;;
77091;SDS011;66032;48.252;11.638;2023-04-03T15:57:19;2.63;;;1.55;;
77091;SDS011;66032;48.252;11.638;2023-04-03T15:59:46;2.97;;;1.70;;
77091;SDS011;66032;48.252;11.638;2023-04-03T16:02:14;5.95;;;1.98;;
77091;SDS011;66032;48.252;11.638;2023-04-03T16:04:41;3.38;;;1.77;;
77091;SDS011;66032;48.252;11.638;2023-04-03T16:07:08;4.30;;;2.22;;
77091;SDS011;66032;48.252;11.638;2023-04-03T16:09:36;2.40;;;1.55;;
77091;SDS011;66032;48.252;11.638;2023-04-03T16:12:03;2.63;;;1.60;;
77091;SDS011;66032;48.252;11.638;2023-04-03T16:14:31;3.40;;;1.88;;
77091;SDS011;66032;48.252;11.638;2023-04-03T16:16:58;3.03;;;1.77;;
77091;SDS011;66032;48.252;11.638;2023-04-03T16:19:26;3.05;;;1.60;;
77091;SDS011;66032;48.252;11.638;2023-04-03T16:21:56;4.55;;;1.80;;
77091;SDS011;66032;48.252;11.638;2023-04-03T16:24:24;4.57;;;1.80;;
77091;SDS011;66032;48.252;11.638;2023-04-03T16:26:52;3.45;;;1.70;;
77091;SDS011;66032;48.252;11.638;2023-04-03T16:29:20;3.50;;;1.80;;
77091;SDS011;66032;48.252;11.638;2023-04-03T16:31:47;4.13;;;1.65;;
77091;SDS011;66032;48.252;11.638;2023-04-03T16:34:14;4.72;;;1.75;;
77091;SDS011;66032;48.252;11.638;2023-04-03T16:36:42;3.45;;;1.88;;
77091;SDS011;66032;48.252;11.638;2023-04-03T16:39:10;3.83;;;1.92;;
77091;SDS011;66032;48.252;11.638;2023-04-03T16:41:37;2.95;;;1.73;;
77091;SDS011;66032;48.252;11.638;2023-04-03T16:44:04;3.95;;;1.90;;
77091;SDS011;66032;48.252;11.638;2023-04-03T16:46:34;2.90;;;1.65;;
77091;SDS011;66032;48.252;11.638;2023-04-03T16:49:01;2.90;;;1.58;;
77091;SDS011;66032;48.252;11.638;2023-04-03T16:51:29;3.20;;;1.50;;
77091;SDS011;66032;48.252;11.638;2023-04-03T16:53:58;4.88;;;1.92;;
77091;SDS011;66032;48.252;11.638;2023-04-03T16:56:26;5.35;;;2.00;;
77091;SDS011;66032;48.252;11.638;2023-04-03T16:58:54;4.93;;;1.83;;
77091;SDS011;66032;48.252;11.638;2023-04-03T17:01:21;3.90;;;1.90;;
77091;SDS011;66032;48.252;11.638;2023-04-03T17:03:49;4.75;;;2.00;;
77091;SDS011;66032;48.252;11.638;2023-04-03T17:06:18;2.90;;;1.55;;
77091;SDS011;66032;48.252;11.638;2023-04-03T17:08:47;4.45;;;1.50;;
77091;SDS011;66032;48.252;11.638;2023-04-03T17:11:25;4.65;;;1.90;;
77091;SDS011;66032;48.252;11.638;2023-04-03T17:13:54;4.22;;;1.70;;
77091;SDS011;66032;48.252;11.638;2023-04-03T17:16:21;3.75;;;1.90;;
77091;SDS011;66032;48.252;11.638;2023-04-03T17:18:50;3.58;;;2.00;;
77091;SDS011;66032;48.252;11.638;2023-04-03T17:21:19;3.28;;;1.70;;